Clearwater PCEM FL US WEATHERSTEM current weather conditions

sailwx.info

Wind from 270 at 8 knots gusting 10

Air temperature 24.8° C
Dewpoint 12.0° C

Last reported at 2020-Apr-04 20:40 UTC.
Time now 2020-Apr-04 21:44 UTC

Location: N 27°58' W 082°48'.
View on Google Maps.

See reports from other nearby stations

  
Tides and Currents Weather Stations Pressure Air Temp Water Temp Dewpoint Dewpoint Depression Visibility Wind Speed Wind Dir Waves Ship Positions
date/time (UTC)wind fromknots sea level pressurealtimeterstation pressurevisibilityair tempwater tempwave heightnotes
2020-Apr-04 20:40 270 8 gusting 10 24.8
2020-Apr-04 20:30 285 6 gusting 8 24.8
2020-Apr-04 20:20 232 4 gusting 9 24.9
2020-Apr-04 20:00 247 6 gusting 10 24.4
2020-Apr-04 19:50 262 9 gusting 10 24.6
2020-Apr-04 19:40 259 7 gusting 11 24.5
2020-Apr-04 19:30 267 9 gusting 12 24.4
2020-Apr-04 19:20 263 7 gusting 10 24.6
2020-Apr-04 19:00 259 8 gusting 11 24.8
2020-Apr-04 18:50 251 6 gusting 8 24.6
2020-Apr-04 18:40 360 6 gusting 8 24.4
2020-Apr-04 18:30 290 9 gusting 9 24.3
2020-Apr-04 18:20 273 6 gusting 8 24.3
2020-Apr-04 18:00 275 3 gusting 7 24.4
2020-Apr-04 17:50 277 5 gusting 6 24.6
2020-Apr-04 17:40 275 5 gusting 6 24.6
2020-Apr-04 17:20 266 6 gusting 8 23.7
2020-Apr-04 17:00 254 2 gusting 8 24.6
2020-Apr-04 16:50 242 7 gusting 9 24.3
2020-Apr-04 16:40 273 5 gusting 8 24.2
2020-Apr-04 16:30 279 6 gusting 8 24.0
2020-Apr-04 16:20 253 4 gusting 9 24.2
2020-Apr-04 16:00 259 6 gusting 8 23.9
2020-Apr-04 15:50 276 6 gusting 9 23.8
2020-Apr-04 15:40 271 8 gusting 8 24.0
2020-Apr-04 15:30 360 4 gusting 6 23.8
2020-Apr-04 15:20 288 3 gusting 6 23.8
2020-Apr-04 15:00 315 5 gusting 8 23.4
2020-Apr-04 14:50 315 1 gusting 6 23.1
2020-Apr-04 14:40 289 2 gusting 6 22.9
2020-Apr-04 14:30 275 1 gusting 5 22.9
2020-Apr-04 14:20 272 5 gusting 5 22.7
2020-Apr-04 14:00 254 6 gusting 6 22.3
2020-Apr-04 13:50 324 1 gusting 4 22.2
2020-Apr-04 13:30 034 2 gusting 4 21.6
2020-Apr-04 13:20 035 2 gusting 5 21.2
2020-Apr-04 13:00 035 1 gusting 4 20.6
2020-Apr-04 12:50 005 1 gusting 5 20.0
2020-Apr-04 12:40 051 3 gusting 5 19.5
2020-Apr-04 12:30 094 5 gusting 7 19.1
2020-Apr-04 12:20 075 3 gusting 7 18.8
2020-Apr-04 12:00 051 5 gusting 7 18.2
2020-Apr-04 11:50 040 6 gusting 8 18.1
2020-Apr-04 11:40 051 6 gusting 7 18.0
2020-Apr-04 11:30 042 3 gusting 6 18.0
2020-Apr-04 11:20 059 4 gusting 6 18.0
2020-Apr-04 11:00 052 3 gusting 6 18.1
2020-Apr-04 10:50 059 4 gusting 6 18.2
2020-Apr-04 10:40 054 3 gusting 7 18.4
2020-Apr-04 10:30 026 5 gusting 8 18.6
2020-Apr-04 10:20 044 5 gusting 8 18.7
2020-Apr-04 10:00 040 2 gusting 4 18.6
2020-Apr-04 09:50 060 1 gusting 3 18.4
2020-Apr-04 09:30 090 1 gusting 4 18.3
2020-Apr-04 09:20 077 2 gusting 3 18.2
2020-Apr-04 09:00 118 0 gusting 2 18.4
2020-Apr-04 08:50 092 2 gusting 5 18.5
2020-Apr-04 08:40 076 2 gusting 4 18.5
2020-Apr-04 08:30 027 2 gusting 4 18.6
2020-Apr-04 08:20 096 2 gusting 4 18.7
2020-Apr-04 08:00 086 1 gusting 4 18.9
2020-Apr-04 07:50 054 1 gusting 5 19.1
2020-Apr-04 07:40 069 2 gusting 6 19.2
2020-Apr-04 07:30 099 3 gusting 6 19.4
2020-Apr-04 07:20 044 3 gusting 7 19.6
2020-Apr-04 07:00 018 3 gusting 7 19.8
2020-Apr-04 06:40 069 4 gusting 7 20.1
2020-Apr-04 06:30 044 4 gusting 7 20.3
2020-Apr-04 06:20 051 3 gusting 6 20.4
2020-Apr-04 06:00 040 1 gusting 5 20.7
2020-Apr-04 05:50 051 4 gusting 6 20.8
2020-Apr-04 05:40 062 4 gusting 6 20.8
2020-Apr-04 05:30 050 3 gusting 5 20.9
2020-Apr-04 05:20 054 2 gusting 5 21.1
2020-Apr-04 05:00 073 0 gusting 2 21.3
2020-Apr-04 04:50 068 0 gusting 2 21.6
2020-Apr-04 04:40 351 0 gusting 5 21.6
2020-Apr-04 04:30 048 3 gusting 4 21.6
2020-Apr-04 04:20 039 3 gusting 3 21.7
2020-Apr-04 04:00 005 1 gusting 2 21.9
2020-Apr-04 03:50 22.1
2020-Apr-04 03:40 360 0 gusting 2 22.1
2020-Apr-04 03:20 22.1
2020-Apr-04 03:10 22.2
2020-Apr-04 03:00 22.3
2020-Apr-04 02:50 22.4
2020-Apr-04 02:40 22.4
2020-Apr-04 02:30 327 1 gusting 4 22.4
2020-Apr-04 02:20 344 0 gusting 4 22.5
2020-Apr-04 02:10 017 2 gusting 4 22.6
2020-Apr-04 02:00 343 2 gusting 4 22.6
2020-Apr-04 01:50 300 1 gusting 3 22.6
2020-Apr-04 01:40 265 2 gusting 2 22.6
2020-Apr-04 01:30 347 1 gusting 6 22.6
2020-Apr-04 01:20 355 0 gusting 5 22.7
2020-Apr-04 01:00 341 2 gusting 7 22.7
2020-Apr-04 00:50 299 1 gusting 6 22.8
2020-Apr-04 00:40 286 2 gusting 6 22.8
2020-Apr-04 00:30 281 5 gusting 6 22.8
2020-Apr-04 00:20 319 4 gusting 6 22.8
2020-Apr-04 00:00 294 1 gusting 8 22.8
2020-Apr-03 23:50 275 6 gusting 8 22.9
2020-Apr-03 23:30 325 4 gusting 9 22.9
2020-Apr-03 23:20 264 6 gusting 10 23.1
2020-Apr-03 23:10 265 6 gusting 11 23.3
2020-Apr-03 22:50 305 6 gusting 11 23.4
2020-Apr-03 22:40 335 8 gusting 11 23.3
2020-Apr-03 22:30 290 4 gusting 10 23.5
2020-Apr-03 22:20 290 7 gusting 12 23.8
2020-Apr-03 22:10 275 6 gusting 11 23.8
2020-Apr-03 21:50 284 6 gusting 10 24.1
2020-Apr-03 21:40 284 7 gusting 11 24.2
2020-Apr-03 21:30 288 3 gusting 11 24.2
2020-Apr-03 21:20 360 7 gusting 13 24.2
2020-Apr-03 21:10 248 4 gusting 13 24.2
2020-Apr-03 21:00 284 10 gusting 13 24.2
2020-Apr-03 20:50 262 9 gusting 13 24.4
2020-Apr-03 20:40 276 7 gusting 13 24.4
2020-Apr-03 20:30 275 8 gusting 13 24.4
2020-Apr-03 20:20 284 10 gusting 10 24.4
2020-Apr-03 20:10 271 6 gusting 11 24.6
2020-Apr-03 20:00 288 7 gusting 11 24.7
2020-Apr-03 19:50 279 8 gusting 9 25.1
2020-Apr-03 19:30 254 6 gusting 10 25.2
2020-Apr-03 19:20 263 8 gusting 11 25.3
2020-Apr-03 19:10 249 11 gusting 12 25.5
2020-Apr-03 19:00 264 3 gusting 12 25.6
2020-Apr-03 18:50 240 8 gusting 13 25.6
2020-Apr-03 18:40 236 9 gusting 13 26.1
2020-Apr-03 18:30 244 4 gusting 8 26.1
2020-Apr-03 18:20 256 6 gusting 8 25.7
2020-Apr-03 18:10 268 1 gusting 10 26.3
2020-Apr-03 18:00 346 2 gusting 8 26.5
2020-Apr-03 17:50 163 3 gusting 6 27.3
2020-Apr-03 17:40 169 3 gusting 5 26.7
2020-Apr-03 17:30 169 3 gusting 6 26.2
2020-Apr-03 17:20 360 2 gusting 7 26.2
2020-Apr-03 17:10 163 0 gusting 5 26.3
2020-Apr-03 17:00 163 4 gusting 4 26.2
2020-Apr-03 16:50 160 3 gusting 7 25.7
2020-Apr-03 16:40 103 2 gusting 8 25.1
2020-Apr-03 16:30 068 5 gusting 8 25.0
2020-Apr-03 16:20 150 4 gusting 9 24.8
2020-Apr-03 16:10 176 2 gusting 6 24.3
2020-Apr-03 15:50 262 1 gusting 9 24.2
2020-Apr-03 15:40 162 3 gusting 8 24.0
2020-Apr-03 15:30 117 3 gusting 7 23.8
2020-Apr-03 15:20 209 1 gusting 10 23.3
2020-Apr-03 15:10 071 6 gusting 10 22.9
2020-Apr-03 15:00 214 1 gusting 8 22.8
2020-Apr-03 14:50 165 1 gusting 6 22.8
2020-Apr-03 14:40 119 0 gusting 6 22.6
2020-Apr-03 14:30 165 1 gusting 7 22.0
2020-Apr-03 14:20 034 2 gusting 6 21.2
2020-Apr-03 14:10 080 3 gusting 7 20.7
2020-Apr-03 14:00 051 2 gusting 8 19.8
2020-Apr-03 13:50 164 0 gusting 8 18.8
2020-Apr-03 13:40 065 5 gusting 7 18.5
2020-Apr-03 13:30 081 3 gusting 7 17.8
2020-Apr-03 13:20 360 0 gusting 6 17.1
2020-Apr-03 13:10 163 1 gusting 7 16.8
2020-Apr-03 13:00 020 1 gusting 7 16.7
2020-Apr-03 12:50 078 1 gusting 6 16.4
2020-Apr-03 12:40 065 4 gusting 4 16.2
2020-Apr-03 11:20 054 1 gusting 4 15.3
2020-Apr-03 11:10 049 4 gusting 5 15.4
2020-Apr-03 11:00 081 1 gusting 6 15.4
2020-Apr-03 10:50 062 1 gusting 7 15.3
2020-Apr-03 10:40 079 3 gusting 7 15.2
2020-Apr-03 10:30 063 3 gusting 6 15.2
2020-Apr-03 10:20 034 2 gusting 6 15.3
2020-Apr-03 10:10 054 3 gusting 5 15.6
2020-Apr-03 10:00 045 3 gusting 4 15.7
2020-Apr-03 09:50 061 3 gusting 5 15.8
2020-Apr-03 09:40 070 1 gusting 3 15.9
2020-Apr-03 09:30 042 2 gusting 6 16.0
2020-Apr-03 09:20 077 2 gusting 6 16.1
2020-Apr-03 09:10 005 4 gusting 6 16.2
2020-Apr-03 09:00 029 3 gusting 8 16.3
2020-Apr-03 08:50 065 5 gusting 7 16.2
2020-Apr-03 08:40 076 2 gusting 7 16.3
2020-Apr-03 08:30 040 5 gusting 9 16.4
2020-Apr-03 08:20 034 3 gusting 6 16.5
2020-Apr-03 08:10 028 3 gusting 6 16.6
2020-Apr-03 08:00 075 2 gusting 7 16.7
2020-Apr-03 07:50 065 4 gusting 7 16.8
2020-Apr-03 07:40 057 5 gusting 8 16.8
2020-Apr-03 07:30 049 6 gusting 7 16.7
2020-Apr-03 07:20 062 5 gusting 8 16.8
2020-Apr-03 07:10 050 7 gusting 11 16.8
2020-Apr-03 07:00 071 5 gusting 9 16.9
2020-Apr-03 06:50 061 3 gusting 9 17.0
2020-Apr-03 06:40 036 4 gusting 11 17.2
2020-Apr-03 06:20 048 6 gusting 8 18.2
2020-Apr-03 06:10 072 3 gusting 8 18.8
2020-Apr-03 06:00 046 4 gusting 6 19.1
2020-Apr-03 05:50 051 4 gusting 7 19.1
2020-Apr-03 05:40 038 4 gusting 7 19.1
2020-Apr-03 05:30 032 4 gusting 6 19.0
2020-Apr-03 05:20 060 1 gusting 3 19.2
2020-Apr-03 05:10 061 1 gusting 2 19.4
2020-Apr-03 05:00 032 3 gusting 4 19.6
2020-Apr-03 04:50 005 2 gusting 4 19.7
2020-Apr-03 04:40 351 3 gusting 8 19.8
2020-Apr-03 04:30 355 7 gusting 7 20.0
2020-Apr-03 04:20 348 2 gusting 10 20.3
2020-Apr-03 04:10 005 6 gusting 8 20.3
2020-Apr-03 04:00 341 6 gusting 12 20.3
2020-Apr-03 03:50 340 5 gusting 12 20.3
2020-Apr-03 03:40 331 3 gusting 10 20.3
2020-Apr-03 03:20 327 2 gusting 9 20.3
2020-Apr-03 03:10 020 3 gusting 9 20.3
2020-Apr-03 03:00 304 3 gusting 13 20.3
2020-Apr-03 02:50 338 6 gusting 9 20.3
2020-Apr-03 02:40 005 7 gusting 11 20.4
2020-Apr-03 02:30 302 3 gusting 11 20.4
2020-Apr-03 02:20 338 5 gusting 11 20.3
2020-Apr-03 02:10 259 3 gusting 12 20.3
2020-Apr-03 02:00 360 5 gusting 11 20.3
2020-Apr-03 01:50 340 12 gusting 12 20.3
2020-Apr-03 01:40 339 5 gusting 8 20.3
2020-Apr-03 01:30 270 6 gusting 9 20.3
2020-Apr-03 01:20 286 5 gusting 7 20.4
2020-Apr-03 01:10 311 4 gusting 7 20.3
2020-Apr-03 01:00 322 2 gusting 9 20.3
2020-Apr-03 00:40 335 3 gusting 9 20.4
2020-Apr-03 00:30 340 5 gusting 8 20.4
2020-Apr-03 00:20 360 3 gusting 8 20.4
2020-Apr-03 00:10 281 5 gusting 11 20.4
2020-Apr-02 23:50 242 5 gusting 9 20.7
2020-Apr-02 23:40 311 3 gusting 11 20.8
2020-Apr-02 23:30 325 3 gusting 10 20.9
2020-Apr-02 23:20 310 3 gusting 12 21.1
2020-Apr-02 23:10 320 4 gusting 10 21.2
2020-Apr-02 22:50 330 7 gusting 11 21.6
2020-Apr-02 22:40 010 4 gusting 11 21.7
2020-Apr-02 22:30 256 2 gusting 11 21.8
2020-Apr-02 22:20 271 6 gusting 11 21.6